Colden Common, United Kingdom
Current Conditions -  °F | °C
As of 12:50 PM on Saturday 25 Oct 2014 (Local Time) from EGHI Reporting Station
Broken Clouds Broken Clouds  
Wind Chill: 57°   Ceiling: 4800
Heat Index: 57°   Visibility: 6mi
Dew Point: 45°   Wind: 7mph
Humidity: 63%   Direction: 270°W
Pressure: 30.09"   Gusts: NA
Location:  50.99°N, 1.31°W
Report Text: EGHI 251150Z 27006KT 230V300 9999 BKN048 14/07 Q1019
Loading
Personal Weather Stations






























Interactive Weather Map New forecast layout! Learn more

10-Day Weather Forecast

Advertisements
Track Severe Weather on mobile